Espen Wiik er pilot PDF Skriv ut E-post
Skrevet av Dmytro Yakovenko   
lørdag 17. mars 2018 12:59

Årets andre PPL-A sertifikatet i Kjevik Flyklubb kom den 14. mars 2018 når Espen Wiik har bestått sin skill test i strålende vintervær med Arne Ribe som kontrollant. Klubben og skolen gratulerer Espen med rykende fersk PPL-A sertifikatet! Vi ønsker Espen mange flotte flyopplevelser og lykke til med VFR-natt kurset. Hovedinstruktøren har vært Christoffer Lund.

 
 
METAR
2018/12/12 16:50 ENCN 121650Z 05006KT 9999 FEW032 M02/M03 Q1032
TAF
2018/12/12 15:37 TAF ENCN 121400Z 1215/1222 05008KT 9999 FEW012 BKN025 PROB40 TEMPO 1215/1222 4000 -SN BKN012
LN-KFK
Operativ VFR-natt
VFR dag
08:13 - 16:29
Brannvakt
Inaktiv
Banner
Banner
Banner
Banner
Banner